^^
Station Historical Data
Daily Summary for February 2, 2018 Units:  English    Metric   Both
« Previous Day
Next Day »
Daily Weekly Monthly Yearly Custom
  High: Low: Average:
Temperature: TemperatureF °F 63.5 °F 78.3 °F
Dew Point: DewpointF °F 36.9 °F 45.8 °F
Humidity: Humidity% 17% 34%
Wind Speed: WindSpeedMPHmph 0.0mph 1.2mph
Wind Gust: WindSpeedGustMPHmph - -
Wind- - South
Pressure: PressureIn in 29.54 in -
Precipitation: 0.00 in    
Historical Graphs
 
 
Tabular Data for February 2, 2018
Time Temperature Dew Point Pressure Wind Wind Speed Wind Gust Humidity Rainfall Rate (Hourly) solar Conditions
TemperatureF °F DewpointF °F PressureIn in Calm     Humidity% HourlyPrecipIn in SolarRadiationWatts/m^2 W/m2 Conditions
00:04 71.6 °F 51.4 °F 29.63 in Calm     49% 0.00 in 0.0 W/m2
00:09 71.6 °F 50.9 °F 29.63 in Calm     48% 0.00 in 0.0 W/m2
00:14 71.6 °F 51.4 °F 29.63 in Calm     49% 0.00 in 0.0 W/m2
00:20 71.6 °F 52.0 °F 29.63 in Calm     50% 0.00 in 0.0 W/m2
00:25 71.6 °F 52.0 °F 29.63 in Calm     50% 0.00 in 0.0 W/m2
00:30 71.6 °F 52.0 °F 29.63 in Calm     50% 0.00 in 0.0 W/m2
00:35 71.4 °F 51.3 °F 29.63 in Calm     49% 0.00 in 0.0 W/m2
00:40 71.4 °F 51.8 °F 29.63 in Calm     50% 0.00 in 0.0 W/m2
00:45 71.4 °F 51.8 °F 29.63 in Calm     50% 0.00 in 0.0 W/m2
00:50 71.4 °F 51.8 °F 29.63 in Calm     50% 0.00 in 0.0 W/m2
00:55 71.2 °F 51.6 °F 29.63 in Calm   1.0 mph 50% 0.00 in 0.0 W/m2
01:00 71.2 °F 51.6 °F 29.63 in Calm   1.0 mph 50% 0.00 in 0.0 W/m2
01:06 71.1 °F 51.4 °F 29.63 in Calm   1.0 mph 50% 0.00 in 0.0 W/m2
01:11 71.1 °F 51.4 °F 29.63 in Calm   1.0 mph 50% 0.00 in 0.0 W/m2
01:16 71.1 °F 51.4 °F 29.63 in Calm   1.0 mph 50% 0.00 in 0.0 W/m2
01:21 71.1 °F 51.4 °F 29.63 in Calm   1.0 mph 50% 0.00 in 0.0 W/m2
01:27 70.9 °F 51.3 °F 29.62 in Calm     50% 0.00 in 0.0 W/m2
01:32 70.9 °F 51.3 °F 29.62 in Calm     50% 0.00 in 0.0 W/m2
01:38 70.9 °F 51.3 °F 29.62 in Calm     50% 0.00 in 0.0 W/m2
01:43 70.7 °F 51.1 °F 29.62 in Calm     50% 0.00 in 0.0 W/m2
01:48 70.5 °F 50.4 °F 29.61 in Calm     49% 0.00 in 0.0 W/m2
01:54 70.5 °F 49.3 °F 29.61 in Calm     47% 0.00 in 0.0 W/m2
01:59 70.3 °F 49.6 °F 29.61 in Calm     48% 0.00 in 0.0 W/m2
02:04 70.3 °F 50.4 °F 29.61 in Calm     49% 0.00 in 0.0 W/m2
02:10 70.2 °F 50.7 °F 29.61 in Calm   1.0 mph 50% 0.00 in 0.0 W/m2
02:15 70.0 °F 49.5 °F 29.61 in Calm     48% 0.00 in 0.0 W/m2
02:20 70.0 °F 47.1 °F 29.60 in Calm     44% 0.00 in 0.0 W/m2
02:25 69.6 °F 45.5 °F 29.61 in Calm     42% 0.00 in 0.0 W/m2
02:30 69.6 °F 45.5 °F 29.61 in Calm     42% 0.00 in 0.0 W/m2
02:35 69.4 °F 45.3 °F 29.61 in Calm   1.0 mph 42% 0.00 in 0.0 W/m2
02:40 69.4 °F 46.0 °F 29.61 in Calm     43% 0.00 in 0.0 W/m2
02:45 69.3 °F 45.1 °F 29.60 in Calm   2.0 mph 42% 0.00 in 0.0 W/m2
02:51 69.3 °F 43.9 °F 29.60 in Calm   1.0 mph 40% 0.00 in 0.0 W/m2
02:56 69.1 °F 43.7 °F 29.60 in Calm     40% 0.00 in 0.0 W/m2
03:01 68.9 °F 44.8 °F 29.60 in Calm     42% 0.00 in 0.0 W/m2
03:07 68.7 °F 44.8 °F 29.60 in Calm     42% 0.00 in 0.0 W/m2
03:12 68.5 °F 45.1 °F 29.60 in Calm     43% 0.00 in 0.0 W/m2
03:17 68.4 °F 45.0 °F 29.60 in Calm     43% 0.00 in 0.0 W/m2
03:23 68.2 °F 44.2 °F 29.60 in Calm     42% 0.00 in 0.0 W/m2
03:28 67.8 °F 44.4 °F 29.60 in Calm   2.0 mph 43% 0.00 in 0.0 W/m2
03:33 67.8 °F 45.1 °F 29.61 in Calm   1.0 mph 44% 0.00 in 0.0 W/m2
03:38 67.6 °F 45.0 °F 29.60 in Calm   1.0 mph 44% 0.00 in 0.0 W/m2
03:43 67.5 °F 45.3 °F 29.60 in Calm   1.0 mph 45% 0.00 in 0.0 W/m2
03:49 67.3 °F 45.1 °F 29.60 in Calm     45% 0.00 in 0.0 W/m2
03:54 67.3 °F 45.1 °F 29.60 in Calm     45% 0.00 in 0.0 W/m2
03:59 67.1 °F 45.7 °F 29.60 in NE 0.9 mph 2.0 mph 46% 0.00 in 0.0 W/m2
04:05 66.9 °F 45.5 °F 29.59 in Calm     46% 0.00 in 0.0 W/m2
04:10 66.7 °F 45.9 °F 29.59 in Calm   1.0 mph 47% 0.00 in 0.0 W/m2
04:15 66.6 °F 45.7 °F 29.59 in Calm   2.0 mph 47% 0.00 in 0.0 W/m2
04:20 66.6 °F 46.2 °F 29.59 in Calm     48% 0.00 in 0.0 W/m2
04:25 66.6 °F 46.2 °F 29.59 in Calm   1.0 mph 48% 0.00 in 0.0 W/m2
04:30 66.6 °F 46.8 °F 29.59 in Calm     49% 0.00 in 0.0 W/m2
04:35 66.6 °F 47.3 °F 29.60 in Calm     50% 0.00 in 0.0 W/m2
04:40 66.6 °F 47.3 °F 29.59 in Calm     50% 0.00 in 0.0 W/m2
04:46 66.6 °F 45.7 °F 29.60 in ESE 0.9 mph 1.0 mph 47% 0.00 in 0.0 W/m2
04:51 66.6 °F 45.1 °F 29.60 in Calm     46% 0.00 in 0.0 W/m2
04:56 66.6 °F 44.6 °F 29.60 in Calm   1.0 mph 45% 0.00 in 0.0 W/m2
05:02 66.4 °F 45.0 °F 29.60 in Calm     46% 0.00 in 0.0 W/m2
05:07 66.4 °F 44.4 °F 29.60 in Calm   1.0 mph 45% 0.00 in 0.0 W/m2
05:13 66.0 °F 44.6 °F 29.61 in Calm   1.0 mph 46% 0.00 in 0.0 W/m2
05:19 65.8 °F 45.7 °F 29.61 in East 0.9 mph 3.0 mph 48% 0.00 in 0.0 W/m2
05:24 65.7 °F 45.5 °F 29.61 in ENE 0.9 mph 4.0 mph 48% 0.00 in 0.0 W/m2
05:29 65.7 °F 46.0 °F 29.61 in East 2.0 mph 3.0 mph 49% 0.00 in 0.0 W/m2
05:35 65.5 °F 47.5 °F 29.61 in Calm   2.0 mph 52% 0.00 in 0.0 W/m2
05:40 65.3 °F 47.7 °F 29.62 in Calm     53% 0.00 in 0.0 W/m2
05:45 65.1 °F 47.1 °F 29.62 in Calm     52% 0.00 in 0.0 W/m2
05:51 64.9 °F 47.5 °F 29.62 in SE 0.9 mph 4.0 mph 53% 0.00 in 0.0 W/m2
05:56 64.8 °F 46.8 °F 29.62 in SE 0.9 mph 2.0 mph 52% 0.00 in 0.0 W/m2
06:01 64.8 °F 47.3 °F 29.62 in Calm   2.0 mph 53% 0.00 in 0.0 W/m2
06:07 64.6 °F 47.1 °F 29.62 in Calm     53% 0.00 in 0.0 W/m2
06:13 64.6 °F 47.1 °F 29.62 in Calm     53% 0.00 in 0.0 W/m2
06:18 64.6 °F 47.1 °F 29.62 in Calm   1.0 mph 53% 0.00 in 0.0 W/m2
06:24 64.2 °F 46.8 °F 29.63 in Calm   1.0 mph 53% 0.00 in 0.0 W/m2
06:29 64.0 °F 46.0 °F 29.63 in Calm   1.0 mph 52% 0.00 in 0.0 W/m2
06:34 64.0 °F 46.0 °F 29.63 in Calm   1.0 mph 52% 0.00 in 0.0 W/m2
06:39 63.9 °F 46.4 °F 29.63 in Calm     53% 0.00 in 7.0 W/m2
06:44 63.9 °F 46.4 °F 29.63 in Calm     53% 0.00 in 9.0 W/m2
06:49 63.7 °F 46.2 °F 29.63 in Calm     53% 0.00 in 14.0 W/m2
06:54 63.7 °F 46.8 °F 29.63 in Calm   1.0 mph 54% 0.00 in 21.0 W/m2
06:59 63.5 °F 46.6 °F 29.64 in Calm     54% 0.00 in 25.0 W/m2
07:05 63.5 °F 46.6 °F 29.64 in Calm     54% 0.00 in 32.0 W/m2
07:10 63.7 °F 46.8 °F 29.64 in Calm     54% 0.00 in 39.0 W/m2
07:15 63.7 °F 46.8 °F 29.64 in Calm     54% 0.00 in 42.0 W/m2
07:20 63.9 °F 46.9 °F 29.65 in Calm   3.0 mph 54% 0.00 in 26.0 W/m2
07:25 64.0 °F 47.1 °F 29.65 in Calm   2.0 mph 54% 0.00 in 23.0 W/m2
07:30 64.4 °F 46.9 °F 29.65 in Calm   3.0 mph 53% 0.00 in 23.0 W/m2
07:35 64.8 °F 47.7 °F 29.65 in Calm   1.0 mph 54% 0.00 in 26.0 W/m2
07:40 64.9 °F 47.5 °F 29.65 in Calm   1.0 mph 53% 0.00 in 30.0 W/m2
07:46 65.1 °F 47.5 °F 29.65 in ENE 0.9 mph 1.0 mph 53% 0.00 in 25.0 W/m2
07:51 65.1 °F 48.0 °F 29.65 in Calm   1.0 mph 54% 0.00 in 28.0 W/m2
07:56 65.3 °F 47.7 °F 29.65 in Calm     53% 0.00 in 33.0 W/m2
08:01 65.3 °F 48.2 °F 29.65 in ENE 0.9 mph 1.0 mph 54% 0.00 in 40.0 W/m2
08:06 65.5 °F 47.8 °F 29.65 in Calm     53% 0.00 in 44.0 W/m2
08:11 65.7 °F 48.6 °F 29.65 in Calm     54% 0.00 in 77.0 W/m2
08:16 65.8 °F 48.2 °F 29.65 in Calm     53% 0.00 in 346.0 W/m2
08:22 66.2 °F 46.4 °F 29.65 in Calm     49% 0.00 in 388.0 W/m2
08:27 66.9 °F 45.0 °F 29.65 in Calm   1.0 mph 45% 0.00 in 411.0 W/m2
08:32 68.0 °F 43.3 °F 29.65 in SSW 0.9 mph 3.0 mph 41% 0.00 in 427.0 W/m2
08:38 69.3 °F 41.2 °F 29.65 in Calm   4.0 mph 36% 0.00 in 452.0 W/m2
08:43 70.3 °F 40.6 °F 29.65 in Calm   2.0 mph 34% 0.00 in 466.0 W/m2
08:49 71.8 °F 40.3 °F 29.65 in SW 0.9 mph 3.0 mph 32% 0.00 in 494.0 W/m2
08:54 73.0 °F 38.8 °F 29.65 in Calm   3.0 mph 29% 0.00 in 515.0 W/m2
08:59 74.5 °F 40.1 °F 29.66 in SSE 0.9 mph 4.0 mph 29% 0.00 in 538.0 W/m2
09:04 75.6 °F 41.0 °F 29.65 in SE 0.9 mph 2.0 mph 29% 0.00 in 557.0 W/m2
09:09 76.6 °F 40.1 °F 29.65 in Calm   3.0 mph 27% 0.00 in 575.0 W/m2
09:14 77.4 °F 40.8 °F 29.66 in SE 2.0 mph 3.0 mph 27% 0.00 in 596.0 W/m2
09:19 78.3 °F 40.6 °F 29.66 in South 2.0 mph 4.0 mph 26% 0.00 in 531.0 W/m2
09:25 78.6 °F 39.9 °F 29.66 in Calm   6.0 mph 25% 0.00 in 635.0 W/m2
09:30 79.0 °F 41.2 °F 29.66 in Calm   1.0 mph 26% 0.00 in 652.0 W/m2
09:35 79.5 °F 42.6 °F 29.66 in West 2.0 mph 3.0 mph 27% 0.00 in 663.0 W/m2
09:41 80.1 °F 42.1 °F 29.66 in NNW 0.9 mph 2.0 mph 26% 0.00 in 682.0 W/m2
09:46 80.4 °F 41.4 °F 29.67 in WSW 0.9 mph 8.0 mph 25% 0.00 in 701.0 W/m2
09:51 80.2 °F 42.3 °F 29.67 in SSW 2.0 mph 3.0 mph 26% 0.00 in 686.0 W/m2
09:56 80.8 °F 42.6 °F 29.67 in ESE 0.9 mph 2.0 mph 26% 0.00 in 742.0 W/m2
10:01 81.3 °F 43.2 °F 29.67 in ENE 2.0 mph 5.0 mph 26% 0.00 in 707.0 W/m2
10:06 82.2 °F 43.9 °F 29.67 in SE 2.9 mph 6.0 mph 26% 0.00 in 545.0 W/m2
10:11 82.6 °F 44.2 °F 29.67 in ESE 2.0 mph 5.0 mph 26% 0.00 in 786.0 W/m2
10:16 82.8 °F 45.3 °F 29.66 in Calm   4.0 mph 27% 0.00 in 795.0 W/m2
10:21 83.1 °F 45.7 °F 29.66 in SSE 2.9 mph 5.0 mph 27% 0.00 in 812.0 W/m2
10:26 83.5 °F 46.0 °F 29.66 in ENE 2.9 mph 8.0 mph 27% 0.00 in 826.0 W/m2
10:31 83.8 °F 45.3 °F 29.66 in East 2.0 mph 2.0 mph 26% 0.00 in 842.0 W/m2
10:37 84.4 °F 45.7 °F 29.66 in NNE 6.9 mph 7.0 mph 26% 0.00 in 858.0 W/m2
10:42 84.6 °F 45.9 °F 29.67 in ENE 2.0 mph 5.0 mph 26% 0.00 in 708.0 W/m2
10:47 84.7 °F 46.0 °F 29.66 in Calm   3.0 mph 26% 0.00 in 972.0 W/m2
10:53 84.9 °F 45.1 °F 29.66 in Calm   6.0 mph 25% 0.00 in 918.0 W/m2
10:58 85.3 °F 46.6 °F 29.65 in Calm   4.0 mph 26% 0.00 in 912.0 W/m2
11:04 86.0 °F 46.0 °F 29.65 in NW 0.9 mph 7.0 mph 25% 0.00 in 935.0 W/m2
11:09 86.4 °F 45.3 °F 29.65 in East 0.9 mph 5.0 mph 24% 0.00 in 860.0 W/m2
11:14 86.5 °F 46.6 °F 29.65 in Calm   8.0 mph 25% 0.00 in 956.0 W/m2
11:19 87.1 °F 46.9 °F 29.65 in NW 2.0 mph 5.0 mph 25% 0.00 in 842.0 W/m2
11:24 87.4 °F 46.2 °F 29.65 in Calm   3.0 mph 24% 0.00 in 983.0 W/m2
11:29 87.4 °F 46.2 °F 29.65 in WNW 2.9 mph 7.0 mph 24% 0.00 in 1002.0 W/m2
11:34 87.4 °F 46.2 °F 29.65 in NNW 4.9 mph 10.0 mph 24% 0.00 in 1027.0 W/m2
11:40 87.4 °F 46.2 °F 29.65 in NNE 2.9 mph 9.0 mph 24% 0.00 in 997.0 W/m2
11:45 87.6 °F 46.4 °F 29.65 in Calm   1.0 mph 24% 0.00 in 1007.0 W/m2
11:50 88.0 °F 46.6 °F 29.65 in Calm   3.0 mph 24% 0.00 in 1062.0 W/m2
11:55 88.2 °F 45.7 °F 29.65 in SSE 0.9 mph 7.0 mph 23% 0.00 in 1039.0 W/m2
12:00 88.3 °F 46.9 °F 29.65 in SE 4.0 mph 7.0 mph 24% 0.00 in 1025.0 W/m2
12:05 88.3 °F 45.9 °F 29.64 in SSW 0.9 mph 6.0 mph 23% 0.00 in 1025.0 W/m2
12:10 87.8 °F 45.3 °F 29.64 in Calm   5.0 mph 23% 0.00 in 1079.0 W/m2
12:15 88.3 °F 45.9 °F 29.64 in WNW 2.9 mph 3.0 mph 23% 0.00 in 1099.0 W/m2
12:21 89.1 °F 45.3 °F 29.64 in WNW 2.0 mph 3.0 mph 22% 0.00 in 1139.0 W/m2
12:26 89.4 °F 45.5 °F 29.64 in NE 4.0 mph 7.0 mph 22% 0.00 in 1139.0 W/m2
12:31 89.4 °F 45.5 °F 29.64 in Calm   6.0 mph 22% 0.00 in 1150.0 W/m2
12:36 89.8 °F 45.9 °F 29.63 in East 0.9 mph 6.0 mph 22% 0.00 in 1181.0 W/m2
12:41 90.0 °F 44.8 °F 29.63 in Calm   3.0 mph 21% 0.00 in 1085.0 W/m2
12:46 90.0 °F 46.0 °F 29.63 in NNE 2.9 mph 4.0 mph 22% 0.00 in 360.0 W/m2
12:51 90.0 °F 44.8 °F 29.63 in NNE 2.0 mph 6.0 mph 21% 0.00 in 1199.0 W/m2
12:56 90.0 °F 46.0 °F 29.63 in North 0.9 mph 4.0 mph 22% 0.00 in 1259.0 W/m2
13:01 90.0 °F 46.0 °F 29.63 in East 2.0 mph 5.0 mph 22% 0.00 in 729.0 W/m2
13:06 89.8 °F 44.6 °F 29.63 in NE 2.9 mph 7.0 mph 21% 0.00 in 1250.0 W/m2
13:11 90.3 °F 45.1 °F 29.62 in West 0.9 mph 4.0 mph 21% 0.00 in 1178.0 W/m2
13:16 90.1 °F 45.0 °F 29.62 in WNW 2.0 mph 4.0 mph 21% 0.00 in 246.0 W/m2
13:21 89.8 °F 44.6 °F 29.62 in Calm   1.0 mph 21% 0.00 in 260.0 W/m2
13:27 89.8 °F 45.9 °F 29.62 in NNW 0.9 mph 2.0 mph 22% 0.00 in 285.0 W/m2
13:32 89.4 °F 44.4 °F 29.62 in South 6.0 mph 8.0 mph 21% 0.00 in 299.0 W/m2
13:37 88.5 °F 44.8 °F 29.62 in SW 0.9 mph 3.0 mph 22% 0.00 in 1241.0 W/m2
13:42 88.7 °F 45.0 °F 29.61 in South 2.0 mph 6.0 mph 22% 0.00 in 1187.0 W/m2
13:47 88.9 °F 45.1 °F 29.61 in WSW 0.9 mph 8.0 mph 22% 0.00 in 232.0 W/m2
13:52 88.5 °F 44.8 °F 29.61 in South 4.0 mph 4.0 mph 22% 0.00 in 246.0 W/m2
13:57 88.0 °F 44.4 °F 29.61 in Calm   6.0 mph 22% 0.00 in 278.0 W/m2
14:02 88.0 °F 44.4 °F 29.60 in WSW 0.9 mph 5.0 mph 22% 0.00 in 1155.0 W/m2
14:07 88.2 °F 44.6 °F 29.60 in SE 2.9 mph 6.0 mph 22% 0.00 in 1014.0 W/m2
14:12 89.1 °F 44.1 °F 29.60 in SSW 4.9 mph 7.0 mph 21% 0.00 in 1035.0 W/m2
14:17 89.6 °F 45.7 °F 29.60 in SSW 4.0 mph 4.0 mph 22% 0.00 in 1118.0 W/m2
14:23 89.8 °F 44.6 °F 29.59 in SSW 2.0 mph 6.0 mph 21% 0.00 in 1165.0 W/m2
14:28 89.8 °F 44.6 °F 29.59 in SSW 2.9 mph 8.0 mph 21% 0.00 in 1165.0 W/m2
14:33 90.3 °F 45.1 °F 29.59 in SE 4.9 mph 8.0 mph 21% 0.00 in 1072.0 W/m2
14:38 91.0 °F 44.4 °F 29.59 in Calm   3.0 mph 20% 0.00 in 211.0 W/m2
14:43 91.0 °F 44.4 °F 29.59 in WSW 4.9 mph 5.0 mph 20% 0.00 in 1095.0 W/m2
14:48 91.2 °F 44.6 °F 29.58 in Calm   6.0 mph 20% 0.00 in 1081.0 W/m2
14:53 91.9 °F 43.7 °F 29.58 in SW 4.9 mph 8.0 mph 19% 0.00 in 1078.0 W/m2
14:58 92.3 °F 44.1 °F 29.58 in WSW 4.0 mph 8.0 mph 19% 0.00 in 1055.0 W/m2
15:03 92.7 °F 44.4 °F 29.58 in South 0.9 mph 4.0 mph 19% 0.00 in 1027.0 W/m2
15:09 92.7 °F 43.0 °F 29.57 in ENE 0.9 mph 3.0 mph 18% 0.00 in 1072.0 W/m2
15:14 92.7 °F 44.4 °F 29.57 in WSW 2.0 mph 7.0 mph 19% 0.00 in 990.0 W/m2
15:19 93.0 °F 44.6 °F 29.57 in West 8.9 mph 11.0 mph 19% 0.00 in 1002.0 W/m2
15:24 92.8 °F 44.6 °F 29.57 in SW 4.9 mph 9.0 mph 19% 0.00 in 981.0 W/m2
15:29 92.5 °F 44.2 °F 29.56 in SSE 2.9 mph 6.0 mph 19% 0.00 in 967.0 W/m2
15:34 92.3 °F 44.1 °F 29.56 in WSW 2.0 mph 9.0 mph 19% 0.00 in 942.0 W/m2
15:39 92.5 °F 44.2 °F 29.56 in West 8.1 mph 12.0 mph 19% 0.00 in 960.0 W/m2
15:44 92.5 °F 44.2 °F 29.56 in WSW 2.9 mph 7.0 mph 19% 0.00 in 956.0 W/m2
15:49 92.7 °F 43.0 °F 29.56 in SE 2.0 mph 3.0 mph 18% 0.00 in 923.0 W/m2
15:54 93.4 °F 43.5 °F 29.56 in Calm   5.0 mph 18% 0.00 in 912.0 W/m2
16:00 92.5 °F 42.8 °F 29.56 in Calm   5.0 mph 18% 0.00 in 188.0 W/m2
16:05 90.9 °F 44.2 °F 29.56 in South 2.9 mph 5.0 mph 20% 0.00 in 195.0 W/m2
16:10 90.1 °F 43.7 °F 29.55 in SSW 2.9 mph 4.0 mph 20% 0.00 in 216.0 W/m2
16:15 90.1 °F 43.7 °F 29.55 in Calm   3.0 mph 20% 0.00 in 831.0 W/m2
16:20 91.2 °F 44.6 °F 29.55 in SE 0.9 mph 3.0 mph 20% 0.00 in 555.0 W/m2
16:25 92.1 °F 43.9 °F 29.55 in SSE 0.9 mph 8.0 mph 19% 0.00 in 487.0 W/m2
16:30 92.7 °F 44.4 °F 29.54 in SSW 4.9 mph 8.0 mph 19% 0.00 in 759.0 W/m2
16:35 92.5 °F 44.2 °F 29.54 in Calm   4.0 mph 19% 0.00 in 206.0 W/m2
16:40 91.6 °F 43.5 °F 29.55 in Calm   4.0 mph 19% 0.00 in 176.0 W/m2
16:46 90.3 °F 43.9 °F 29.55 in South 0.9 mph 6.0 mph 20% 0.00 in 142.0 W/m2
16:51 90.0 °F 43.5 °F 29.55 in Calm   3.0 mph 20% 0.00 in 171.0 W/m2
16:57 90.1 °F 43.7 °F 29.54 in SSW 0.9 mph 2.0 mph 20% 0.00 in 165.0 W/m2
17:02 90.1 °F 43.7 °F 29.54 in SW 2.0 mph 7.0 mph 20% 0.00 in 137.0 W/m2
17:07 89.8 °F 43.3 °F 29.54 in South 4.9 mph 8.0 mph 20% 0.00 in 141.0 W/m2
17:12 89.2 °F 43.0 °F 29.54 in SSW 0.9 mph 3.0 mph 20% 0.00 in 132.0 W/m2
17:17 88.9 °F 43.9 °F 29.54 in South 4.0 mph 5.0 mph 21% 0.00 in 128.0 W/m2
17:22 88.3 °F 43.5 °F 29.54 in SSW 4.0 mph 5.0 mph 21% 0.00 in 118.0 W/m2
17:27 88.2 °F 43.3 °F 29.54 in Calm   5.0 mph 21% 0.00 in 104.0 W/m2
17:32 88.2 °F 43.3 °F 29.54 in SSW 2.9 mph 4.0 mph 21% 0.00 in 95.0 W/m2
17:37 88.0 °F 43.2 °F 29.54 in SSW 2.0 mph 5.0 mph 21% 0.00 in 90.0 W/m2
17:42 87.6 °F 42.8 °F 29.54 in SSW 2.0 mph 2.0 mph 21% 0.00 in 81.0 W/m2
17:47 87.4 °F 42.8 °F 29.55 in Calm   4.0 mph 21% 0.00 in 77.0 W/m2
17:53 87.4 °F 42.8 °F 29.54 in Calm     21% 0.00 in 77.0 W/m2
17:58 87.3 °F 42.6 °F 29.55 in Calm     21% 0.00 in 74.0 W/m2
18:03 87.3 °F 42.6 °F 29.55 in Calm   4.0 mph 21% 0.00 in 67.0 W/m2
18:08 87.3 °F 42.6 °F 29.55 in Calm   2.0 mph 21% 0.00 in 62.0 W/m2
18:13 87.3 °F 42.6 °F 29.54 in SSE 2.0 mph 3.0 mph 21% 0.00 in 53.0 W/m2
18:19 87.3 °F 42.6 °F 29.54 in SE 0.9 mph 3.0 mph 21% 0.00 in 46.0 W/m2
18:24 87.3 °F 42.6 °F 29.54 in SE 2.0 mph 4.0 mph 21% 0.00 in 42.0 W/m2
18:29 87.3 °F 42.6 °F 29.55 in Calm     21% 0.00 in 49.0 W/m2
18:34 87.3 °F 42.6 °F 29.55 in Calm     21% 0.00 in 49.0 W/m2
18:39 87.3 °F 42.6 °F 29.55 in Calm   1.0 mph 21% 0.00 in 49.0 W/m2
18:45 87.3 °F 42.6 °F 29.55 in Calm     21% 0.00 in 97.0 W/m2
18:50 87.4 °F 42.8 °F 29.55 in Calm   1.0 mph 21% 0.00 in 114.0 W/m2
18:55 88.0 °F 43.2 °F 29.55 in Calm   1.0 mph 21% 0.00 in 40.0 W/m2
19:00 88.0 °F 43.2 °F 29.55 in Calm   2.0 mph 21% 0.00 in 47.0 W/m2
19:05 88.2 °F 43.3 °F 29.55 in Calm   1.0 mph 21% 0.00 in 46.0 W/m2
19:10 88.3 °F 42.3 °F 29.56 in Calm   1.0 mph 20% 0.00 in 39.0 W/m2
19:15 88.3 °F 39.4 °F 29.57 in West 2.0 mph 8.0 mph 18% 0.00 in 33.0 W/m2
19:20 87.6 °F 37.4 °F 29.57 in WSW 9.0 mph 9.0 mph 17% 0.00 in 26.0 W/m2
19:25 86.5 °F 37.9 °F 29.57 in WSW 2.9 mph 10.0 mph 18% 0.00 in 19.0 W/m2
19:31 85.6 °F 37.2 °F 29.58 in SW 6.0 mph 9.0 mph 18% 0.00 in 12.0 W/m2
19:37 85.1 °F 38.1 °F 29.58 in SSW 4.9 mph 10.0 mph 19% 0.00 in 7.0 W/m2
19:42 84.6 °F 37.8 °F 29.58 in SW 0.9 mph 11.0 mph 19% 0.00 in 5.0 W/m2
19:47 84.0 °F 37.4 °F 29.59 in South 2.0 mph 10.0 mph 19% 0.00 in 0.0 W/m2
19:52 83.8 °F 37.2 °F 29.59 in WSW 8.9 mph 9.0 mph 19% 0.00 in 0.0 W/m2
19:57 83.5 °F 36.9 °F 29.59 in West 2.9 mph 8.0 mph 19% 0.00 in 0.0 W/m2
20:03 83.5 °F 38.1 °F 29.59 in WNW 4.9 mph 9.0 mph 20% 0.00 in 0.0 W/m2
20:08 83.1 °F 37.9 °F 29.60 in SW 2.0 mph 5.0 mph 20% 0.00 in 0.0 W/m2
20:13 83.1 °F 37.9 °F 29.61 in SSE 0.9 mph 7.0 mph 20% 0.00 in 0.0 W/m2
20:19 83.1 °F 44.6 °F 29.62 in SSE 0.9 mph 3.0 mph 26% 0.00 in 0.0 W/m2
20:25 82.9 °F 49.3 °F 29.62 in SE 6.0 mph 9.0 mph 31% 0.00 in 0.0 W/m2
20:30 82.4 °F 50.4 °F 29.62 in Calm   7.0 mph 33% 0.00 in 0.0 W/m2
20:35 81.9 °F 50.7 °F 29.62 in Calm   4.0 mph 34% 0.00 in 0.0 W/m2
20:40 81.1 °F 50.9 °F 29.62 in SE 2.0 mph 6.0 mph 35% 0.00 in 0.0 W/m2
20:45 80.8 °F 50.5 °F 29.62 in ESE 2.0 mph 4.0 mph 35% 0.00 in 0.0 W/m2
20:50 80.4 °F 51.1 °F 29.62 in SSE 2.0 mph 8.0 mph 36% 0.00 in 0.0 W/m2
20:55 80.1 °F 51.4 °F 29.62 in East 6.9 mph 10.0 mph 37% 0.00 in 0.0 W/m2
21:00 79.7 °F 51.1 °F 29.63 in ENE 4.9 mph 6.0 mph 37% 0.00 in 0.0 W/m2
21:05 79.3 °F 51.4 °F 29.63 in SSE 6.9 mph 10.0 mph 38% 0.00 in 0.0 W/m2
21:11 79.2 °F 52.2 °F 29.63 in NE 0.9 mph 9.0 mph 39% 0.00 in 0.0 W/m2
21:16 78.6 °F 51.6 °F 29.63 in ESE 6.0 mph 8.0 mph 39% 0.00 in 0.0 W/m2
21:21 78.4 °F 52.2 °F 29.63 in Calm   11.0 mph 40% 0.00 in 0.0 W/m2
21:26 78.3 °F 52.0 °F 29.64 in East 4.9 mph 8.0 mph 40% 0.00 in 0.0 W/m2
21:31 77.9 °F 51.6 °F 29.64 in SSE 4.0 mph 7.0 mph 40% 0.00 in 0.0 W/m2
21:36 77.7 °F 51.4 °F 29.64 in NNE 0.9 mph 6.0 mph 40% 0.00 in 0.0 W/m2
21:41 77.4 °F 51.8 °F 29.64 in ENE 2.0 mph 5.0 mph 41% 0.00 in 0.0 W/m2
21:46 77.2 °F 51.6 °F 29.64 in SSE 0.9 mph 5.0 mph 41% 0.00 in 0.0 W/m2
21:51 77.2 °F 51.6 °F 29.64 in Calm   5.0 mph 41% 0.00 in 0.0 W/m2
21:56 76.8 °F 52.0 °F 29.64 in ENE 2.9 mph 6.0 mph 42% 0.00 in 0.0 W/m2
22:01 76.6 °F 51.8 °F 29.65 in ESE 2.0 mph 6.0 mph 42% 0.00 in 0.0 W/m2
22:07 76.6 °F 51.8 °F 29.65 in SE 0.9 mph 4.0 mph 42% 0.00 in 0.0 W/m2
22:12 76.5 °F 51.6 °F 29.65 in Calm   3.0 mph 42% 0.00 in 0.0 W/m2
22:17 76.5 °F 51.1 °F 29.65 in NE 0.9 mph 1.0 mph 41% 0.00 in 0.0 W/m2
22:22 76.5 °F 51.1 °F 29.65 in Calm   2.0 mph 41% 0.00 in 0.0 W/m2
22:27 76.3 °F 50.9 °F 29.65 in Calm     41% 0.00 in 0.0 W/m2
22:32 76.3 °F 50.9 °F 29.65 in Calm   2.0 mph 41% 0.00 in 0.0 W/m2
22:37 76.1 °F 50.7 °F 29.65 in Calm   2.0 mph 41% 0.00 in 0.0 W/m2
22:42 75.9 °F 51.3 °F 29.66 in ESE 0.9 mph 5.0 mph 42% 0.00 in 0.0 W/m2
22:48 75.7 °F 51.1 °F 29.66 in SSE 0.9 mph 4.0 mph 42% 0.00 in 0.0 W/m2
22:53 75.7 °F 51.1 °F 29.66 in Calm   3.0 mph 42% 0.00 in 0.0 W/m2
22:58 75.6 °F 50.9 °F 29.66 in Calm   2.0 mph 42% 0.00 in 0.0 W/m2
23:03 75.6 °F 50.2 °F 29.66 in Calm   2.0 mph 41% 0.00 in 0.0 W/m2
23:08 75.6 °F 50.2 °F 29.66 in Calm   3.0 mph 41% 0.00 in 0.0 W/m2
23:13 75.6 °F 49.5 °F 29.66 in Calm   3.0 mph 40% 0.00 in 0.0 W/m2
23:18 75.6 °F 49.5 °F 29.66 in Calm   3.0 mph 40% 0.00 in 0.0 W/m2
23:23 75.6 °F 49.5 °F 29.66 in Calm   1.0 mph 40% 0.00 in 0.0 W/m2
23:28 75.6 °F 49.5 °F 29.66 in SSE 0.9 mph 2.0 mph 40% 0.00 in 0.0 W/m2
23:33 75.4 °F 50.0 °F 29.66 in South 0.9 mph 1.0 mph 41% 0.00 in 0.0 W/m2
23:39 75.2 °F 49.8 °F 29.66 in Calm   2.0 mph 41% 0.00 in 0.0 W/m2
23:44 74.8 °F 49.6 °F 29.66 in South 0.9 mph 2.0 mph 41% 0.00 in 0.0 W/m2
23:49 74.5 °F 49.3 °F 29.66 in South 0.9 mph 1.0 mph 41% 0.00 in 0.0 W/m2
23:54 74.1 °F 49.6 °F 29.67 in Calm   1.0 mph 42% 0.00 in 0.0 W/m2
23:59 73.9 °F 49.5 °F 29.66 in Calm   1.0 mph 42% 0.00 in 0.0 W/m2
Olympia, Windhoek, Namibia
Compliments of Weather Underground - 3.25 mb